sensor_id;sensor_type;location;lat;lon;timestamp;temperature;humidity
10512;DHT22;5304;48.604;2.096;2022-07-23T00:01:59;18.70;99.90
10512;DHT22;5304;48.604;2.096;2022-07-23T00:04:44;18.60;99.90
10512;DHT22;5304;48.604;2.096;2022-07-23T00:07:28;18.60;99.90
10512;DHT22;5304;48.604;2.096;2022-07-23T00:10:12;18.60;99.90
10512;DHT22;5304;48.604;2.096;2022-07-23T00:12:57;18.60;99.90
10512;DHT22;5304;48.604;2.096;2022-07-23T00:15:41;18.60;99.90
10512;DHT22;5304;48.604;2.096;2022-07-23T00:18:25;18.60;99.90
10512;DHT22;5304;48.604;2.096;2022-07-23T00:21:10;18.60;99.90
10512;DHT22;5304;48.604;2.096;2022-07-23T00:23:54;18.60;99.90
10512;DHT22;5304;48.604;2.096;2022-07-23T00:26:38;18.60;99.90
10512;DHT22;5304;48.604;2.096;2022-07-23T00:29:23;18.70;99.90
10512;DHT22;5304;48.604;2.096;2022-07-23T00:32:08;18.70;99.90
10512;DHT22;5304;48.604;2.096;2022-07-23T00:34:52;18.60;99.90
10512;DHT22;5304;48.604;2.096;2022-07-23T00:37:37;18.60;99.90
10512;DHT22;5304;48.604;2.096;2022-07-23T00:40:22;18.50;99.90
10512;DHT22;5304;48.604;2.096;2022-07-23T00:43:06;18.50;99.90
10512;DHT22;5304;48.604;2.096;2022-07-23T00:45:50;18.50;99.90
10512;DHT22;5304;48.604;2.096;2022-07-23T00:48:35;18.60;99.90
10512;DHT22;5304;48.604;2.096;2022-07-23T00:51:20;18.80;99.90
10512;DHT22;5304;48.604;2.096;2022-07-23T00:54:04;18.80;99.90
10512;DHT22;5304;48.604;2.096;2022-07-23T00:56:48;18.80;99.90
10512;DHT22;5304;48.604;2.096;2022-07-23T00:59:33;18.80;99.90
10512;DHT22;5304;48.604;2.096;2022-07-23T01:02:18;18.70;99.90
10512;DHT22;5304;48.604;2.096;2022-07-23T01:05:03;18.70;99.90
10512;DHT22;5304;48.604;2.096;2022-07-23T01:07:51;18.70;99.90
10512;DHT22;5304;48.604;2.096;2022-07-23T01:10:36;18.70;99.90
10512;DHT22;5304;48.604;2.096;2022-07-23T01:13:20;18.70;99.90
10512;DHT22;5304;48.604;2.096;2022-07-23T01:16:05;18.70;99.90
10512;DHT22;5304;48.604;2.096;2022-07-23T01:18:49;18.80;99.90
10512;DHT22;5304;48.604;2.096;2022-07-23T01:21:40;18.70;99.90
10512;DHT22;5304;48.604;2.096;2022-07-23T01:24:25;18.70;99.90
10512;DHT22;5304;48.604;2.096;2022-07-23T01:27:09;18.70;99.90
10512;DHT22;5304;48.604;2.096;2022-07-23T01:29:55;18.70;99.90
10512;DHT22;5304;48.604;2.096;2022-07-23T01:32:41;18.70;99.90
10512;DHT22;5304;48.604;2.096;2022-07-23T01:35:26;18.90;99.90
10512;DHT22;5304;48.604;2.096;2022-07-23T01:38:10;18.80;99.90
10512;DHT22;5304;48.604;2.096;2022-07-23T01:40:54;18.80;99.90
10512;DHT22;5304;48.604;2.096;2022-07-23T01:43:38;18.70;99.90
10512;DHT22;5304;48.604;2.096;2022-07-23T01:46:23;18.60;99.90
10512;DHT22;5304;48.604;2.096;2022-07-23T01:49:08;18.60;99.90
10512;DHT22;5304;48.604;2.096;2022-07-23T01:51:52;18.50;99.90
10512;DHT22;5304;48.604;2.096;2022-07-23T01:54:46;18.60;99.90
10512;DHT22;5304;48.604;2.096;2022-07-23T01:57:30;18.60;99.90
10512;DHT22;5304;48.604;2.096;2022-07-23T02:00:15;18.50;99.90
10512;DHT22;5304;48.604;2.096;2022-07-23T02:02:59;18.50;99.90
10512;DHT22;5304;48.604;2.096;2022-07-23T02:05:43;18.40;99.90
10512;DHT22;5304;48.604;2.096;2022-07-23T02:08:28;18.40;99.90
10512;DHT22;5304;48.604;2.096;2022-07-23T02:11:12;18.50;99.90
10512;DHT22;5304;48.604;2.096;2022-07-23T02:13:56;18.50;99.90
10512;DHT22;5304;48.604;2.096;2022-07-23T02:16:41;18.50;99.90
10512;DHT22;5304;48.604;2.096;2022-07-23T02:19:25;18.60;99.90
10512;DHT22;5304;48.604;2.096;2022-07-23T02:22:10;18.70;99.90
10512;DHT22;5304;48.604;2.096;2022-07-23T02:24:55;18.60;99.90
10512;DHT22;5304;48.604;2.096;2022-07-23T02:27:39;18.60;99.90
10512;DHT22;5304;48.604;2.096;2022-07-23T02:30:24;18.70;99.90
10512;DHT22;5304;48.604;2.096;2022-07-23T02:33:09;18.70;99.90
10512;DHT22;5304;48.604;2.096;2022-07-23T02:35:53;18.60;99.90
10512;DHT22;5304;48.604;2.096;2022-07-23T02:38:38;18.60;99.90
10512;DHT22;5304;48.604;2.096;2022-07-23T02:41:22;18.60;99.90
10512;DHT22;5304;48.604;2.096;2022-07-23T02:44:07;18.60;99.90
10512;DHT22;5304;48.604;2.096;2022-07-23T02:46:51;18.50;99.90
10512;DHT22;5304;48.604;2.096;2022-07-23T02:49:36;18.50;99.90
10512;DHT22;5304;48.604;2.096;2022-07-23T02:52:20;18.40;99.90
10512;DHT22;5304;48.604;2.096;2022-07-23T02:55:05;18.40;99.90
10512;DHT22;5304;48.604;2.096;2022-07-23T02:57:50;18.40;99.90
10512;DHT22;5304;48.604;2.096;2022-07-23T03:00:35;18.30;99.90
10512;DHT22;5304;48.604;2.096;2022-07-23T03:03:19;18.30;99.90
10512;DHT22;5304;48.604;2.096;2022-07-23T03:06:04;18.30;99.90
10512;DHT22;5304;48.604;2.096;2022-07-23T03:08:49;18.20;99.90
10512;DHT22;5304;48.604;2.096;2022-07-23T03:11:33;18.20;99.90
10512;DHT22;5304;48.604;2.096;2022-07-23T03:14:18;18.20;99.90
10512;DHT22;5304;48.604;2.096;2022-07-23T03:17:02;18.20;99.90
10512;DHT22;5304;48.604;2.096;2022-07-23T03:19:47;18.30;99.90
10512;DHT22;5304;48.604;2.096;2022-07-23T03:22:31;18.30;99.90
10512;DHT22;5304;48.604;2.096;2022-07-23T03:25:16;18.40;99.90
10512;DHT22;5304;48.604;2.096;2022-07-23T03:28:00;18.40;99.90
10512;DHT22;5304;48.604;2.096;2022-07-23T03:30:46;18.40;99.90
10512;DHT22;5304;48.604;2.096;2022-07-23T03:33:31;18.40;99.90
10512;DHT22;5304;48.604;2.096;2022-07-23T03:36:15;18.50;99.90
10512;DHT22;5304;48.604;2.096;2022-07-23T03:38:59;18.60;99.90
10512;DHT22;5304;48.604;2.096;2022-07-23T03:41:44;18.60;99.90
10512;DHT22;5304;48.604;2.096;2022-07-23T03:44:29;18.60;99.90
10512;DHT22;5304;48.604;2.096;2022-07-23T03:47:13;18.70;99.90
10512;DHT22;5304;48.604;2.096;2022-07-23T03:49:58;18.80;99.90
10512;DHT22;5304;48.604;2.096;2022-07-23T03:52:42;18.80;99.90
10512;DHT22;5304;48.604;2.096;2022-07-23T03:55:27;18.70;99.90
10512;DHT22;5304;48.604;2.096;2022-07-23T03:58:11;18.80;99.90
10512;DHT22;5304;48.604;2.096;2022-07-23T04:00:56;18.80;99.90
10512;DHT22;5304;48.604;2.096;2022-07-23T04:03:40;18.80;99.90
10512;DHT22;5304;48.604;2.096;2022-07-23T04:06:24;18.90;99.90
10512;DHT22;5304;48.604;2.096;2022-07-23T04:09:09;18.90;99.90
10512;DHT22;5304;48.604;2.096;2022-07-23T04:11:53;18.90;99.90
10512;DHT22;5304;48.604;2.096;2022-07-23T04:14:37;18.90;99.90
10512;DHT22;5304;48.604;2.096;2022-07-23T04:17:23;18.90;99.90
10512;DHT22;5304;48.604;2.096;2022-07-23T04:20:08;18.90;99.90
10512;DHT22;5304;48.604;2.096;2022-07-23T04:22:53;18.90;99.90
10512;DHT22;5304;48.604;2.096;2022-07-23T04:25:37;18.90;99.90
10512;DHT22;5304;48.604;2.096;2022-07-23T04:28:22;18.90;99.90
10512;DHT22;5304;48.604;2.096;2022-07-23T04:31:07;18.90;99.90
10512;DHT22;5304;48.604;2.096;2022-07-23T04:33:51;19.00;99.90
10512;DHT22;5304;48.604;2.096;2022-07-23T04:36:36;19.00;99.90
10512;DHT22;5304;48.604;2.096;2022-07-23T04:39:21;19.00;99.90
10512;DHT22;5304;48.604;2.096;2022-07-23T04:42:05;19.10;99.90
10512;DHT22;5304;48.604;2.096;2022-07-23T04:44:50;19.10;99.90
10512;DHT22;5304;48.604;2.096;2022-07-23T04:47:35;19.10;99.90
10512;DHT22;5304;48.604;2.096;2022-07-23T04:50:19;19.10;99.90
10512;DHT22;5304;48.604;2.096;2022-07-23T04:53:05;19.10;99.90
10512;DHT22;5304;48.604;2.096;2022-07-23T04:55:50;19.10;99.90
10512;DHT22;5304;48.604;2.096;2022-07-23T04:58:35;19.20;99.90
10512;DHT22;5304;48.604;2.096;2022-07-23T05:01:19;19.10;99.90
10512;DHT22;5304;48.604;2.096;2022-07-23T05:04:04;19.10;99.90
10512;DHT22;5304;48.604;2.096;2022-07-23T05:06:51;19.20;99.90
10512;DHT22;5304;48.604;2.096;2022-07-23T05:09:36;19.30;99.90
10512;DHT22;5304;48.604;2.096;2022-07-23T05:12:20;19.20;99.90
10512;DHT22;5304;48.604;2.096;2022-07-23T05:15:05;19.20;99.90
10512;DHT22;5304;48.604;2.096;2022-07-23T05:17:50;19.20;99.90
10512;DHT22;5304;48.604;2.096;2022-07-23T05:20:35;19.20;99.90
10512;DHT22;5304;48.604;2.096;2022-07-23T05:23:19;19.20;99.90
10512;DHT22;5304;48.604;2.096;2022-07-23T05:26:04;19.30;99.90
10512;DHT22;5304;48.604;2.096;2022-07-23T05:28:48;19.30;99.90
10512;DHT22;5304;48.604;2.096;2022-07-23T05:31:33;19.40;99.90
10512;DHT22;5304;48.604;2.096;2022-07-23T05:34:17;19.40;99.90
10512;DHT22;5304;48.604;2.096;2022-07-23T05:37:02;19.40;99.90
10512;DHT22;5304;48.604;2.096;2022-07-23T05:39:46;19.40;99.90
10512;DHT22;5304;48.604;2.096;2022-07-23T05:42:31;19.40;99.90
10512;DHT22;5304;48.604;2.096;2022-07-23T05:45:15;19.40;99.90
10512;DHT22;5304;48.604;2.096;2022-07-23T05:47:59;19.30;99.90
10512;DHT22;5304;48.604;2.096;2022-07-23T05:50:44;19.40;99.90
10512;DHT22;5304;48.604;2.096;2022-07-23T05:53:28;19.40;99.90
10512;DHT22;5304;48.604;2.096;2022-07-23T05:56:14;19.40;99.90
10512;DHT22;5304;48.604;2.096;2022-07-23T05:58:58;19.40;99.90
10512;DHT22;5304;48.604;2.096;2022-07-23T06:01:43;19.40;99.90
10512;DHT22;5304;48.604;2.096;2022-07-23T06:04:27;19.40;99.90
10512;DHT22;5304;48.604;2.096;2022-07-23T06:07:11;19.40;99.90
10512;DHT22;5304;48.604;2.096;2022-07-23T06:09:56;19.40;99.90
10512;DHT22;5304;48.604;2.096;2022-07-23T06:12:41;19.40;99.90
10512;DHT22;5304;48.604;2.096;2022-07-23T06:15:26;19.40;99.90
10512;DHT22;5304;48.604;2.096;2022-07-23T06:18:10;19.30;99.90
10512;DHT22;5304;48.604;2.096;2022-07-23T06:20:55;19.30;99.90
10512;DHT22;5304;48.604;2.096;2022-07-23T06:23:39;19.30;99.90
10512;DHT22;5304;48.604;2.096;2022-07-23T06:26:24;19.30;99.90
10512;DHT22;5304;48.604;2.096;2022-07-23T06:29:09;19.40;99.90
10512;DHT22;5304;48.604;2.096;2022-07-23T06:31:53;19.40;99.90
10512;DHT22;5304;48.604;2.096;2022-07-23T06:34:38;19.30;99.90
10512;DHT22;5304;48.604;2.096;2022-07-23T06:37:23;19.30;99.90
10512;DHT22;5304;48.604;2.096;2022-07-23T06:40:07;19.30;99.90
10512;DHT22;5304;48.604;2.096;2022-07-23T06:42:52;19.30;99.90
10512;DHT22;5304;48.604;2.096;2022-07-23T06:45:36;19.30;99.90
10512;DHT22;5304;48.604;2.096;2022-07-23T06:48:21;19.40;99.90
10512;DHT22;5304;48.604;2.096;2022-07-23T06:51:06;19.30;99.90
10512;DHT22;5304;48.604;2.096;2022-07-23T06:53:51;19.30;99.90
10512;DHT22;5304;48.604;2.096;2022-07-23T06:56:35;19.40;99.90
10512;DHT22;5304;48.604;2.096;2022-07-23T06:59:20;19.50;99.90
10512;DHT22;5304;48.604;2.096;2022-07-23T07:02:04;19.50;99.90
10512;DHT22;5304;48.604;2.096;2022-07-23T07:04:49;19.60;99.90
10512;DHT22;5304;48.604;2.096;2022-07-23T07:07:34;19.60;99.90
10512;DHT22;5304;48.604;2.096;2022-07-23T07:10:19;19.70;99.90
10512;DHT22;5304;48.604;2.096;2022-07-23T07:13:04;19.80;99.90
10512;DHT22;5304;48.604;2.096;2022-07-23T07:15:48;19.80;99.90
10512;DHT22;5304;48.604;2.096;2022-07-23T07:18:33;19.80;99.90
10512;DHT22;5304;48.604;2.096;2022-07-23T07:21:17;19.90;99.90
10512;DHT22;5304;48.604;2.096;2022-07-23T07:24:02;19.90;99.90
10512;DHT22;5304;48.604;2.096;2022-07-23T07:26:46;19.90;99.90
10512;DHT22;5304;48.604;2.096;2022-07-23T07:29:31;19.90;99.90
10512;DHT22;5304;48.604;2.096;2022-07-23T07:32:15;19.80;99.90
10512;DHT22;5304;48.604;2.096;2022-07-23T07:35:00;19.80;99.90
10512;DHT22;5304;48.604;2.096;2022-07-23T07:37:44;19.80;99.90
10512;DHT22;5304;48.604;2.096;2022-07-23T07:40:29;19.80;99.90
10512;DHT22;5304;48.604;2.096;2022-07-23T07:43:13;20.00;99.90
10512;DHT22;5304;48.604;2.096;2022-07-23T07:45:58;20.20;99.90
10512;DHT22;5304;48.604;2.096;2022-07-23T07:48:43;20.40;99.90
10512;DHT22;5304;48.604;2.096;2022-07-23T07:51:27;20.70;99.90
10512;DHT22;5304;48.604;2.096;2022-07-23T07:54:13;20.80;99.90
10512;DHT22;5304;48.604;2.096;2022-07-23T07:56:59;20.80;99.90
10512;DHT22;5304;48.604;2.096;2022-07-23T07:59:43;20.80;99.90
10512;DHT22;5304;48.604;2.096;2022-07-23T08:02:28;20.80;99.90
10512;DHT22;5304;48.604;2.096;2022-07-23T08:05:13;20.90;99.90
10512;DHT22;5304;48.604;2.096;2022-07-23T08:07:58;20.80;99.90
10512;DHT22;5304;48.604;2.096;2022-07-23T08:10:43;20.90;99.90
10512;DHT22;5304;48.604;2.096;2022-07-23T08:13:28;21.00;99.90
10512;DHT22;5304;48.604;2.096;2022-07-23T08:16:13;21.70;99.90
10512;DHT22;5304;48.604;2.096;2022-07-23T08:18:58;22.40;99.90
10512;DHT22;5304;48.604;2.096;2022-07-23T08:21:42;22.90;99.90
10512;DHT22;5304;48.604;2.096;2022-07-23T08:24:27;23.50;99.90
10512;DHT22;5304;48.604;2.096;2022-07-23T08:27:11;23.60;99.90
10512;DHT22;5304;48.604;2.096;2022-07-23T08:29:56;23.50;99.90
10512;DHT22;5304;48.604;2.096;2022-07-23T08:33:01;23.40;99.90
10512;DHT22;5304;48.604;2.096;2022-07-23T08:35:48;23.10;99.90
10512;DHT22;5304;48.604;2.096;2022-07-23T08:38:34;22.90;99.90
10512;DHT22;5304;48.604;2.096;2022-07-23T08:41:20;22.60;99.90
10512;DHT22;5304;48.604;2.096;2022-07-23T08:44:07;22.50;99.90
10512;DHT22;5304;48.604;2.096;2022-07-23T08:46:52;22.40;99.90
10512;DHT22;5304;48.604;2.096;2022-07-23T08:49:37;22.30;99.90
10512;DHT22;5304;48.604;2.096;2022-07-23T08:52:22;22.60;99.90
10512;DHT22;5304;48.604;2.096;2022-07-23T08:55:08;23.30;99.90
10512;DHT22;5304;48.604;2.096;2022-07-23T08:57:53;24.00;99.90
10512;DHT22;5304;48.604;2.096;2022-07-23T09:00:38;24.20;99.90
10512;DHT22;5304;48.604;2.096;2022-07-23T09:03:26;24.40;99.90
10512;DHT22;5304;48.604;2.096;2022-07-23T09:06:11;24.40;99.90
10512;DHT22;5304;48.604;2.096;2022-07-23T09:08:55;24.10;99.90
10512;DHT22;5304;48.604;2.096;2022-07-23T09:11:46;23.90;99.90
10512;DHT22;5304;48.604;2.096;2022-07-23T09:14:44;24.00;99.90
10512;DHT22;5304;48.604;2.096;2022-07-23T09:17:41;23.90;99.90
10512;DHT22;5304;48.604;2.096;2022-07-23T09:20:26;24.10;99.90
10512;DHT22;5304;48.604;2.096;2022-07-23T09:23:10;24.20;99.90
10512;DHT22;5304;48.604;2.096;2022-07-23T09:25:55;24.40;99.90
10512;DHT22;5304;48.604;2.096;2022-07-23T09:28:52;24.50;99.90
10512;DHT22;5304;48.604;2.096;2022-07-23T09:31:55;25.00;99.90
10512;DHT22;5304;48.604;2.096;2022-07-23T09:34:40;24.90;99.90
10512;DHT22;5304;48.604;2.096;2022-07-23T09:37:33;24.70;99.90
10512;DHT22;5304;48.604;2.096;2022-07-23T09:40:17;24.50;99.90
10512;DHT22;5304;48.604;2.096;2022-07-23T09:43:01;24.60;99.90
10512;DHT22;5304;48.604;2.096;2022-07-23T09:45:47;24.50;99.90
10512;DHT22;5304;48.604;2.096;2022-07-23T09:48:32;24.30;99.90
10512;DHT22;5304;48.604;2.096;2022-07-23T09:51:17;24.20;99.90
10512;DHT22;5304;48.604;2.096;2022-07-23T09:54:26;24.20;99.90
10512;DHT22;5304;48.604;2.096;2022-07-23T09:57:12;24.20;99.90
10512;DHT22;5304;48.604;2.096;2022-07-23T10:00:05;24.80;99.90
10512;DHT22;5304;48.604;2.096;2022-07-23T10:02:51;24.80;99.90
10512;DHT22;5304;48.604;2.096;2022-07-23T10:05:37;24.80;99.90
10512;DHT22;5304;48.604;2.096;2022-07-23T10:08:23;24.60;99.90
10512;DHT22;5304;48.604;2.096;2022-07-23T10:11:09;24.70;99.90
10512;DHT22;5304;48.604;2.096;2022-07-23T10:13:55;24.70;99.90
10512;DHT22;5304;48.604;2.096;2022-07-23T10:16:43;24.30;99.90
10512;DHT22;5304;48.604;2.096;2022-07-23T10:19:28;24.50;99.90
10512;DHT22;5304;48.604;2.096;2022-07-23T10:22:15;24.40;99.90
10512;DHT22;5304;48.604;2.096;2022-07-23T10:25:28;24.30;99.90
10512;DHT22;5304;48.604;2.096;2022-07-23T10:28:41;24.30;99.90
10512;DHT22;5304;48.604;2.096;2022-07-23T10:34:50;25.30;99.90
10512;DHT22;5304;48.604;2.096;2022-07-23T10:37:41;25.80;99.90
10512;DHT22;5304;48.604;2.096;2022-07-23T10:40:26;26.00;99.90
10512;DHT22;5304;48.604;2.096;2022-07-23T10:43:15;26.10;99.90
10512;DHT22;5304;48.604;2.096;2022-07-23T10:46:24;26.10;99.90
10512;DHT22;5304;48.604;2.096;2022-07-23T10:49:32;26.30;99.90
10512;DHT22;5304;48.604;2.096;2022-07-23T10:57:48;27.40;99.90
10512;DHT22;5304;48.604;2.096;2022-07-23T11:00:34;27.50;99.90
10512;DHT22;5304;48.604;2.096;2022-07-23T11:03:30;27.40;99.90
10512;DHT22;5304;48.604;2.096;2022-07-23T11:06:17;27.40;99.90
10512;DHT22;5304;48.604;2.096;2022-07-23T11:15:08;26.80;99.90
10512;DHT22;5304;48.604;2.096;2022-07-23T11:20:37;26.50;99.90
10512;DHT22;5304;48.604;2.096;2022-07-23T11:23:22;26.90;99.90
10512;DHT22;5304;48.604;2.096;2022-07-23T11:26:06;27.00;99.90
10512;DHT22;5304;48.604;2.096;2022-07-23T11:28:51;26.90;99.90
10512;DHT22;5304;48.604;2.096;2022-07-23T11:31:36;26.80;99.90
10512;DHT22;5304;48.604;2.096;2022-07-23T11:34:40;27.00;99.90
10512;DHT22;5304;48.604;2.096;2022-07-23T11:37:38;26.90;99.90
10512;DHT22;5304;48.604;2.096;2022-07-23T11:40:24;26.90;99.90
10512;DHT22;5304;48.604;2.096;2022-07-23T11:43:10;26.80;99.90
10512;DHT22;5304;48.604;2.096;2022-07-23T11:45:58;26.90;99.90
10512;DHT22;5304;48.604;2.096;2022-07-23T11:48:43;27.40;99.90
10512;DHT22;5304;48.604;2.096;2022-07-23T11:51:28;27.60;99.90
10512;DHT22;5304;48.604;2.096;2022-07-23T11:54:12;27.70;99.90
10512;DHT22;5304;48.604;2.096;2022-07-23T11:57:00;27.90;99.90
10512;DHT22;5304;48.604;2.096;2022-07-23T11:59:49;28.10;99.90
10512;DHT22;5304;48.604;2.096;2022-07-23T12:02:34;28.00;99.90
10512;DHT22;5304;48.604;2.096;2022-07-23T12:05:24;27.60;99.90
10512;DHT22;5304;48.604;2.096;2022-07-23T12:08:09;27.50;99.90
10512;DHT22;5304;48.604;2.096;2022-07-23T12:10:54;27.50;99.90
10512;DHT22;5304;48.604;2.096;2022-07-23T12:13:39;27.60;99.90
10512;DHT22;5304;48.604;2.096;2022-07-23T12:16:23;27.70;99.90
10512;DHT22;5304;48.604;2.096;2022-07-23T12:19:08;27.90;99.90
10512;DHT22;5304;48.604;2.096;2022-07-23T12:21:53;28.20;99.90
10512;DHT22;5304;48.604;2.096;2022-07-23T12:24:59;27.20;99.90
10512;DHT22;5304;48.604;2.096;2022-07-23T12:27:44;27.00;99.90
10512;DHT22;5304;48.604;2.096;2022-07-23T12:30:41;27.00;99.90
10512;DHT22;5304;48.604;2.096;2022-07-23T12:33:31;26.80;99.90
10512;DHT22;5304;48.604;2.096;2022-07-23T12:36:16;27.30;99.90
10512;DHT22;5304;48.604;2.096;2022-07-23T12:39:00;27.30;99.90
10512;DHT22;5304;48.604;2.096;2022-07-23T12:41:52;27.30;99.90
10512;DHT22;5304;48.604;2.096;2022-07-23T12:44:37;27.20;99.90
10512;DHT22;5304;48.604;2.096;2022-07-23T12:47:21;27.70;99.90
10512;DHT22;5304;48.604;2.096;2022-07-23T12:50:06;28.00;99.90
10512;DHT22;5304;48.604;2.096;2022-07-23T12:52:50;28.10;99.90
10512;DHT22;5304;48.604;2.096;2022-07-23T12:55:46;27.70;99.90
10512;DHT22;5304;48.604;2.096;2022-07-23T12:58:53;27.90;99.90
10512;DHT22;5304;48.604;2.096;2022-07-23T13:01:43;27.90;99.90
10512;DHT22;5304;48.604;2.096;2022-07-23T13:04:32;27.70;99.90
10512;DHT22;5304;48.604;2.096;2022-07-23T13:07:17;27.70;99.90
10512;DHT22;5304;48.604;2.096;2022-07-23T13:10:03;27.80;99.90
10512;DHT22;5304;48.604;2.096;2022-07-23T13:12:47;27.80;99.90
10512;DHT22;5304;48.604;2.096;2022-07-23T13:15:32;28.10;99.90
10512;DHT22;5304;48.604;2.096;2022-07-23T13:18:17;28.20;99.90
10512;DHT22;5304;48.604;2.096;2022-07-23T13:21:02;28.40;99.90
10512;DHT22;5304;48.604;2.096;2022-07-23T13:23:47;28.50;99.90
10512;DHT22;5304;48.604;2.096;2022-07-23T13:26:32;28.60;99.90
10512;DHT22;5304;48.604;2.096;2022-07-23T13:29:16;28.70;99.90
10512;DHT22;5304;48.604;2.096;2022-07-23T13:32:01;28.80;99.90
10512;DHT22;5304;48.604;2.096;2022-07-23T13:34:45;28.70;99.90
10512;DHT22;5304;48.604;2.096;2022-07-23T13:37:30;28.80;99.90
10512;DHT22;5304;48.604;2.096;2022-07-23T13:40:15;28.80;99.90
10512;DHT22;5304;48.604;2.096;2022-07-23T13:42:59;28.60;99.90
10512;DHT22;5304;48.604;2.096;2022-07-23T13:45:45;28.30;99.90
10512;DHT22;5304;48.604;2.096;2022-07-23T13:48:29;28.50;99.90
10512;DHT22;5304;48.604;2.096;2022-07-23T13:51:14;28.70;99.90
10512;DHT22;5304;48.604;2.096;2022-07-23T13:54:00;28.80;99.90
10512;DHT22;5304;48.604;2.096;2022-07-23T13:56:46;29.00;99.90
10512;DHT22;5304;48.604;2.096;2022-07-23T13:59:31;29.00;99.90
10512;DHT22;5304;48.604;2.096;2022-07-23T14:02:17;29.00;99.90
10512;DHT22;5304;48.604;2.096;2022-07-23T14:05:02;28.90;99.90
10512;DHT22;5304;48.604;2.096;2022-07-23T14:07:47;28.90;99.90
10512;DHT22;5304;48.604;2.096;2022-07-23T14:10:34;29.00;99.90
10512;DHT22;5304;48.604;2.096;2022-07-23T14:13:18;28.80;99.90
10512;DHT22;5304;48.604;2.096;2022-07-23T14:16:03;28.80;99.90
10512;DHT22;5304;48.604;2.096;2022-07-23T14:18:47;28.90;99.90
10512;DHT22;5304;48.604;2.096;2022-07-23T14:21:32;28.90;99.90
10512;DHT22;5304;48.604;2.096;2022-07-23T14:24:17;28.90;99.90
10512;DHT22;5304;48.604;2.096;2022-07-23T14:27:03;28.70;99.90
10512;DHT22;5304;48.604;2.096;2022-07-23T14:29:48;28.60;99.90
10512;DHT22;5304;48.604;2.096;2022-07-23T14:32:32;28.40;99.90
10512;DHT22;5304;48.604;2.096;2022-07-23T14:35:17;28.30;99.90
10512;DHT22;5304;48.604;2.096;2022-07-23T14:38:03;28.30;99.90
10512;DHT22;5304;48.604;2.096;2022-07-23T14:40:48;28.40;99.90
10512;DHT22;5304;48.604;2.096;2022-07-23T14:43:33;28.50;99.90
10512;DHT22;5304;48.604;2.096;2022-07-23T14:46:17;28.60;99.90
10512;DHT22;5304;48.604;2.096;2022-07-23T14:49:02;28.60;99.90
10512;DHT22;5304;48.604;2.096;2022-07-23T14:51:46;28.50;99.90
10512;DHT22;5304;48.604;2.096;2022-07-23T14:54:31;28.40;99.90
10512;DHT22;5304;48.604;2.096;2022-07-23T14:57:16;28.40;99.90
10512;DHT22;5304;48.604;2.096;2022-07-23T15:00:00;28.50;99.90
10512;DHT22;5304;48.604;2.096;2022-07-23T15:02:45;28.70;99.90
10512;DHT22;5304;48.604;2.096;2022-07-23T15:05:30;28.80;99.90
10512;DHT22;5304;48.604;2.096;2022-07-23T15:08:14;28.70;99.90
10512;DHT22;5304;48.604;2.096;2022-07-23T15:10:58;28.60;99.90
10512;DHT22;5304;48.604;2.096;2022-07-23T15:13:43;28.50;99.90
10512;DHT22;5304;48.604;2.096;2022-07-23T15:16:27;28.50;99.90
10512;DHT22;5304;48.604;2.096;2022-07-23T15:19:12;28.70;99.90
10512;DHT22;5304;48.604;2.096;2022-07-23T15:21:56;28.80;99.90
10512;DHT22;5304;48.604;2.096;2022-07-23T15:24:43;29.00;99.90
10512;DHT22;5304;48.604;2.096;2022-07-23T15:27:28;28.90;99.90
10512;DHT22;5304;48.604;2.096;2022-07-23T15:30:13;28.80;99.90
10512;DHT22;5304;48.604;2.096;2022-07-23T15:32:57;28.50;99.90
10512;DHT22;5304;48.604;2.096;2022-07-23T15:35:42;28.40;99.90
10512;DHT22;5304;48.604;2.096;2022-07-23T15:38:26;28.40;99.90
10512;DHT22;5304;48.604;2.096;2022-07-23T15:41:11;28.50;99.90
10512;DHT22;5304;48.604;2.096;2022-07-23T15:43:56;28.60;99.90
10512;DHT22;5304;48.604;2.096;2022-07-23T15:46:40;28.50;99.90
10512;DHT22;5304;48.604;2.096;2022-07-23T15:49:25;28.50;99.90
10512;DHT22;5304;48.604;2.096;2022-07-23T15:52:10;28.40;99.90
10512;DHT22;5304;48.604;2.096;2022-07-23T15:54:55;28.30;99.90
10512;DHT22;5304;48.604;2.096;2022-07-23T15:57:39;28.40;99.90
10512;DHT22;5304;48.604;2.096;2022-07-23T16:00:24;28.40;99.90
10512;DHT22;5304;48.604;2.096;2022-07-23T16:03:09;28.50;99.90
10512;DHT22;5304;48.604;2.096;2022-07-23T16:05:53;28.30;99.90
10512;DHT22;5304;48.604;2.096;2022-07-23T16:08:37;27.80;99.90
10512;DHT22;5304;48.604;2.096;2022-07-23T16:11:22;27.70;99.90
10512;DHT22;5304;48.604;2.096;2022-07-23T16:14:06;27.80;99.90
10512;DHT22;5304;48.604;2.096;2022-07-23T16:16:51;27.70;99.90
10512;DHT22;5304;48.604;2.096;2022-07-23T16:19:35;27.80;99.90
10512;DHT22;5304;48.604;2.096;2022-07-23T16:22:20;27.80;99.90
10512;DHT22;5304;48.604;2.096;2022-07-23T16:25:06;28.00;99.90
10512;DHT22;5304;48.604;2.096;2022-07-23T16:27:50;28.00;99.90
10512;DHT22;5304;48.604;2.096;2022-07-23T16:30:35;28.00;99.90
10512;DHT22;5304;48.604;2.096;2022-07-23T16:33:19;27.70;99.90
10512;DHT22;5304;48.604;2.096;2022-07-23T16:36:04;27.60;99.90
10512;DHT22;5304;48.604;2.096;2022-07-23T16:38:48;27.70;99.90
10512;DHT22;5304;48.604;2.096;2022-07-23T16:41:33;27.70;99.90
10512;DHT22;5304;48.604;2.096;2022-07-23T16:44:17;27.70;99.90
10512;DHT22;5304;48.604;2.096;2022-07-23T16:47:02;27.70;99.90
10512;DHT22;5304;48.604;2.096;2022-07-23T16:49:47;27.60;99.90
10512;DHT22;5304;48.604;2.096;2022-07-23T16:52:32;27.60;99.90
10512;DHT22;5304;48.604;2.096;2022-07-23T16:55:16;27.60;99.90
10512;DHT22;5304;48.604;2.096;2022-07-23T16:58:01;27.50;99.90
10512;DHT22;5304;48.604;2.096;2022-07-23T17:00:45;27.50;99.90
10512;DHT22;5304;48.604;2.096;2022-07-23T17:03:30;27.50;99.90
10512;DHT22;5304;48.604;2.096;2022-07-23T17:06:15;27.40;99.90
10512;DHT22;5304;48.604;2.096;2022-07-23T17:08:59;27.40;99.90
10512;DHT22;5304;48.604;2.096;2022-07-23T17:11:44;27.40;99.90
10512;DHT22;5304;48.604;2.096;2022-07-23T17:14:29;27.30;99.90
10512;DHT22;5304;48.604;2.096;2022-07-23T17:17:13;27.20;99.90
10512;DHT22;5304;48.604;2.096;2022-07-23T17:19:57;27.20;99.90
10512;DHT22;5304;48.604;2.096;2022-07-23T17:22:42;27.20;99.90
10512;DHT22;5304;48.604;2.096;2022-07-23T17:25:28;27.10;99.90
10512;DHT22;5304;48.604;2.096;2022-07-23T17:28:13;27.10;99.90
10512;DHT22;5304;48.604;2.096;2022-07-23T17:30:57;27.10;99.90
10512;DHT22;5304;48.604;2.096;2022-07-23T17:33:42;26.90;99.90
10512;DHT22;5304;48.604;2.096;2022-07-23T17:36:27;26.80;99.90
10512;DHT22;5304;48.604;2.096;2022-07-23T17:39:11;26.70;99.90
10512;DHT22;5304;48.604;2.096;2022-07-23T17:41:56;26.70;99.90
10512;DHT22;5304;48.604;2.096;2022-07-23T17:44:40;26.50;99.90
10512;DHT22;5304;48.604;2.096;2022-07-23T17:47:25;26.50;99.90
10512;DHT22;5304;48.604;2.096;2022-07-23T17:50:10;26.50;99.90
10512;DHT22;5304;48.604;2.096;2022-07-23T17:52:56;26.40;99.90
10512;DHT22;5304;48.604;2.096;2022-07-23T17:55:41;26.40;99.90
10512;DHT22;5304;48.604;2.096;2022-07-23T17:58:26;26.30;99.90
10512;DHT22;5304;48.604;2.096;2022-07-23T18:01:10;26.20;99.90